Time;durP1;ratioP1;P1;durP2;ratioP2;P2;SDS_P1;SDS_P2;PMS_P1;PMS_P2;Temp;Humidity;BMP_temperature;BMP_pressure;BME280_temperature;BME280_humidity;BME280_pressure;Samples;Min_cycle;Max_cycle;Signal;HPM_P1;HPM_P2
2021/09/12 00:01:05;;;;;;;28.55;20.35;;;;;;;;;;5057248;22;20044;-65
2021/09/12 00:03:31;;;;;;;25.83;19.30;;;;;;;;;;5050934;28;20025;-65
2021/09/12 00:05:57;;;;;;;26.45;18.38;;;;;;;;;;5051292;28;20025;-65
2021/09/12 00:08:23;;;;;;;27.75;21.02;;;;;;;;;;5051487;28;20627;-65
2021/09/12 00:10:49;;;;;;;26.98;19.23;;;;;;;;;;5051302;28;20056;-64
2021/09/12 00:13:15;;;;;;;28.88;19.63;;;;;;;;;;5051457;28;20489;-65
2021/09/12 00:15:42;;;;;;;29.60;20.33;;;;;;;;;;5019905;28;20390;-65
2021/09/12 00:18:08;;;;;;;27.23;19.73;;;;;;;;;;5015496;28;20021;-64
2021/09/12 00:20:34;;;;;;;29.80;20.95;;;;;;;;;;5017538;28;20037;-64
2021/09/12 00:23:00;;;;;;;29.85;20.70;;;;;;;;;;5017656;28;20032;-65
2021/09/12 00:25:26;;;;;;;29.88;19.67;;;;;;;;;;5035088;28;20026;-65
2021/09/12 00:27:52;;;;;;;29.85;21.38;;;;;;;;;;5034600;28;20048;-65
2021/09/12 00:30:18;;;;;;;27.02;20.58;;;;;;;;;;5026641;28;20025;-65
2021/09/12 00:32:44;;;;;;;29.30;21.73;;;;;;;;;;5035042;28;20030;-65
2021/09/12 00:35:10;;;;;;;31.15;21.80;;;;;;;;;;5034950;28;20032;-65
2021/09/12 00:37:37;;;;;;;26.77;19.58;;;;;;;;;;5038796;28;20059;-64
2021/09/12 00:40:05;;;;;;;29.00;20.15;;;;;;;;;;5036993;28;20112;-65
2021/09/12 00:42:31;;;;;;;28.27;19.45;;;;;;;;;;5054987;28;20508;-65
2021/09/12 00:44:57;;;;;;;25.77;18.85;;;;;;;;;;5054828;28;20021;-64
2021/09/12 00:47:23;;;;;;;26.92;19.15;;;;;;;;;;5035413;28;20456;-65
2021/09/12 00:49:49;;;;;;;25.35;18.02;;;;;;;;;;5034998;28;20026;-65
2021/09/12 00:52:16;;;;;;;27.35;18.77;;;;;;;;;;5034736;28;20029;-65
2021/09/12 00:54:42;;;;;;;28.55;19.35;;;;;;;;;;5017208;28;20040;-64
2021/09/12 00:57:10;;;;;;;27.63;19.33;;;;;;;;;;5034957;28;20366;-65
2021/09/12 00:59:37;;;;;;;26.67;18.20;;;;;;;;;;5035028;28;20029;-65
2021/09/12 01:02:04;;;;;;;25.48;18.67;;;;;;;;;;5036512;28;20063;-65
2021/09/12 01:04:31;;;;;;;30.17;20.50;;;;;;;;;;5036718;28;20029;-65
2021/09/12 01:06:57;;;;;;;29.98;20.52;;;;;;;;;;5054555;28;20017;-65
2021/09/12 01:09:23;;;;;;;32.55;20.73;;;;;;;;;;5054386;28;20067;-65
2021/09/12 01:11:50;;;;;;;27.58;19.25;;;;;;;;;;5034220;28;20440;-65
2021/09/12 01:14:16;;;;;;;31.50;20.67;;;;;;;;;;5016572;28;20064;-65
2021/09/12 01:16:41;;;;;;;28.85;20.92;;;;;;;;;;5016460;28;20446;-65
2021/09/12 01:19:07;;;;;;;28.60;20.55;;;;;;;;;;5034387;28;20033;-65
2021/09/12 01:21:33;;;;;;;33.65;22.08;;;;;;;;;;5034479;28;20478;-64
2021/09/12 01:23:59;;;;;;;32.95;22.50;;;;;;;;;;5038137;28;20021;-65
2021/09/12 01:26:27;;;;;;;38.55;24.08;;;;;;;;;;5054230;28;20051;-65
2021/09/12 01:28:53;;;;;;;35.75;23.80;;;;;;;;;;5052990;28;20059;-65
2021/09/12 01:31:20;;;;;;;33.97;23.60;;;;;;;;;;5035873;28;20121;-65
2021/09/12 01:33:46;;;;;;;36.53;23.85;;;;;;;;;;5053924;28;20028;-64
2021/09/12 01:36:12;;;;;;;34.28;23.80;;;;;;;;;;5052223;28;20132;-65
2021/09/12 01:38:39;;;;;;;32.22;24.08;;;;;;;;;;5054178;28;20065;-65
2021/09/12 01:41:04;;;;;;;35.80;25.20;;;;;;;;;;5053991;28;20396;-65
2021/09/12 01:43:30;;;;;;;37.80;25.38;;;;;;;;;;5035749;28;20020;-65
2021/09/12 01:45:56;;;;;;;41.88;26.50;;;;;;;;;;5036236;28;20362;-65
2021/09/12 01:48:22;;;;;;;34.80;24.88;;;;;;;;;;5044951;28;20109;-65
2021/09/12 01:50:48;;;;;;;33.85;24.08;;;;;;;;;;5015933;28;20021;-65
2021/09/12 01:53:14;;;;;;;36.45;25.92;;;;;;;;;;5015875;28;20021;-65
2021/09/12 01:55:40;;;;;;;36.60;27.50;;;;;;;;;;5033859;28;20030;-65
2021/09/12 01:58:06;;;;;;;35.92;25.63;;;;;;;;;;5035090;28;20047;-65
2021/09/12 02:00:32;;;;;;;37.25;27.35;;;;;;;;;;5025951;28;20041;-64
2021/09/12 02:02:59;;;;;;;38.83;25.77;;;;;;;;;;5033706;28;20017;-65
2021/09/12 02:05:25;;;;;;;40.95;29.02;;;;;;;;;;5033371;28;20041;-65
2021/09/12 02:07:51;;;;;;;37.83;27.42;;;;;;;;;;5033393;28;20071;-65
2021/09/12 02:10:17;;;;;;;41.22;27.70;;;;;;;;;;5034188;28;20435;-65
2021/09/12 02:12:44;;;;;;;43.80;28.85;;;;;;;;;;5033178;28;20044;-65
2021/09/12 02:15:10;;;;;;;37.97;27.05;;;;;;;;;;5032984;28;20025;-65
2021/09/12 02:17:36;;;;;;;46.78;28.60;;;;;;;;;;5015606;28;20473;-65
2021/09/12 02:20:02;;;;;;;41.78;28.08;;;;;;;;;;5022522;28;20056;-65
2021/09/12 02:22:28;;;;;;;41.88;29.75;;;;;;;;;;5053002;28;20025;-65
2021/09/12 02:24:54;;;;;;;42.08;29.08;;;;;;;;;;5052782;28;20099;-65
2021/09/12 02:27:20;;;;;;;42.97;29.02;;;;;;;;;;5053008;28;20031;-65
2021/09/12 02:29:46;;;;;;;46.83;31.45;;;;;;;;;;5052930;28;20029;-65
2021/09/12 02:32:14;;;;;;;43.38;28.83;;;;;;;;;;5025971;28;20144;-65
2021/09/12 02:34:40;;;;;;;45.10;30.65;;;;;;;;;;5032765;28;20445;-65
2021/09/12 02:37:06;;;;;;;42.25;29.15;;;;;;;;;;5015372;28;20028;-65
2021/09/12 02:39:32;;;;;;;42.13;29.98;;;;;;;;;;5015468;28;20029;-65
2021/09/12 02:41:58;;;;;;;41.20;27.25;;;;;;;;;;5014617;28;20500;-65
2021/09/12 02:44:24;;;;;;;43.67;30.67;;;;;;;;;;5045624;28;20028;-65
2021/09/12 02:46:50;;;;;;;41.78;28.35;;;;;;;;;;5052314;28;20025;-65
2021/09/12 02:49:16;;;;;;;46.10;28.88;;;;;;;;;;5052605;28;20112;-65
2021/09/12 02:51:42;;;;;;;44.10;29.23;;;;;;;;;;5052876;28;20209;-65
2021/09/12 02:54:08;;;;;;;39.58;27.42;;;;;;;;;;5034390;28;20115;-65
2021/09/12 02:56:33;;;;;;;46.20;28.40;;;;;;;;;;5018348;28;20386;-65
2021/09/12 02:58:59;;;;;;;46.00;30.20;;;;;;;;;;5015022;28;20033;-65
2021/09/12 03:01:25;;;;;;;40.72;28.58;;;;;;;;;;5032230;28;20405;-65
2021/09/12 03:03:51;;;;;;;41.70;28.77;;;;;;;;;;5014480;28;20087;-65
2021/09/12 03:06:17;;;;;;;41.70;29.08;;;;;;;;;;5014680;28;20029;-65
2021/09/12 03:08:43;;;;;;;43.45;29.60;;;;;;;;;;5023738;28;20029;-65
2021/09/12 03:11:09;;;;;;;40.03;28.63;;;;;;;;;;5033991;28;20095;-65
2021/09/12 03:13:35;;;;;;;42.63;28.83;;;;;;;;;;5034230;28;20029;-65
2021/09/12 03:16:01;;;;;;;41.13;27.25;;;;;;;;;;5025972;28;20059;-65
2021/09/12 03:18:27;;;;;;;47.20;29.60;;;;;;;;;;5014904;28;20033;-65
2021/09/12 03:20:53;;;;;;;39.30;26.42;;;;;;;;;;5015205;28;20124;-65
2021/09/12 03:23:19;;;;;;;39.45;27.05;;;;;;;;;;5032153;28;20101;-65
2021/09/12 03:25:45;;;;;;;41.63;26.95;;;;;;;;;;5014715;28;20096;-65
2021/09/12 03:28:11;;;;;;;39.65;27.15;;;;;;;;;;5032441;28;20393;-65
2021/09/12 03:30:38;;;;;;;42.38;27.73;;;;;;;;;;5033787;28;20033;-65
2021/09/12 03:33:03;;;;;;;37.42;26.05;;;;;;;;;;5033944;28;20029;-64
2021/09/12 03:35:29;;;;;;;35.47;24.83;;;;;;;;;;5051683;28;20354;-65
2021/09/12 03:37:55;;;;;;;39.15;26.80;;;;;;;;;;5052103;28;20039;-65
2021/09/12 03:40:21;;;;;;;37.22;25.13;;;;;;;;;;5031430;28;20033;-65
2021/09/12 03:42:47;;;;;;;42.47;27.50;;;;;;;;;;5034121;28;20036;-65
2021/09/12 03:45:13;;;;;;;41.40;27.15;;;;;;;;;;5051714;28;20021;-65
2021/09/12 03:47:39;;;;;;;38.10;25.63;;;;;;;;;;5034704;28;20048;-65
2021/09/12 03:50:06;;;;;;;41.60;25.52;;;;;;;;;;5027422;28;20017;-65
2021/09/12 03:52:32;;;;;;;38.90;24.67;;;;;;;;;;5015061;28;20030;-65
2021/09/12 03:54:58;;;;;;;37.83;25.95;;;;;;;;;;5035739;28;20405;-65
2021/09/12 03:57:24;;;;;;;38.53;27.42;;;;;;;;;;5037198;28;20026;-65
2021/09/12 03:59:53;;;;;;;42.03;27.30;;;;;;;;;;5035543;28;20052;-65
2021/09/12 04:02:19;;;;;;;43.65;27.30;;;;;;;;;;5042576;28;20115;-64
2021/09/12 04:04:45;;;;;;;35.88;25.92;;;;;;;;;;5055242;28;20033;-65
2021/09/12 04:07:11;;;;;;;37.58;26.02;;;;;;;;;;5037793;28;20023;-65
2021/09/12 04:09:38;;;;;;;38.60;26.75;;;;;;;;;;5037487;28;20017;-65
2021/09/12 04:12:04;;;;;;;39.05;26.67;;;;;;;;;;5037649;28;20025;-65
2021/09/12 04:14:30;;;;;;;44.90;27.63;;;;;;;;;;5048395;28;20044;-65
2021/09/12 04:16:56;;;;;;;37.72;26.17;;;;;;;;;;5017896;28;20152;-65
2021/09/12 04:19:22;;;;;;;41.45;26.58;;;;;;;;;;5035302;28;20025;-64
2021/09/12 04:21:48;;;;;;;42.35;27.20;;;;;;;;;;5017643;28;20541;-65
2021/09/12 04:24:14;;;;;;;39.25;27.80;;;;;;;;;;5035115;28;20025;-65
2021/09/12 04:26:40;;;;;;;39.17;25.90;;;;;;;;;;5042085;28;20112;-65
2021/09/12 04:29:06;;;;;;;42.03;27.30;;;;;;;;;;5037457;28;20029;-65
2021/09/12 04:31:32;;;;;;;44.47;28.17;;;;;;;;;;5037003;28;20029;-65
2021/09/12 04:33:58;;;;;;;44.10;26.92;;;;;;;;;;5055057;28;20113;-66
2021/09/12 04:36:24;;;;;;;40.05;26.75;;;;;;;;;;5055104;28;20491;-65
2021/09/12 04:38:50;;;;;;;42.97;28.38;;;;;;;;;;5027141;28;20120;-64
2021/09/12 04:41:16;;;;;;;44.17;27.00;;;;;;;;;;5017217;28;20033;-65
2021/09/12 04:43:42;;;;;;;50.20;26.25;;;;;;;;;;5017075;28;20500;-65
2021/09/12 04:46:08;;;;;;;40.95;27.67;;;;;;;;;;5035146;28;20029;-65
2021/09/12 04:48:34;;;;;;;43.55;27.67;;;;;;;;;;5017250;28;20466;-65
2021/09/12 04:50:59;;;;;;;41.10;28.15;;;;;;;;;;5032291;28;20044;-65
2021/09/12 04:53:25;;;;;;;44.53;26.90;;;;;;;;;;5036621;28;20039;-65
2021/09/12 04:55:51;;;;;;;43.90;29.20;;;;;;;;;;5054370;28;20028;-64
2021/09/12 04:58:17;;;;;;;48.22;28.88;;;;;;;;;;5036733;28;20036;-65
2021/09/12 05:00:43;;;;;;;43.63;28.23;;;;;;;;;;5040556;28;20486;-65
2021/09/12 05:03:09;;;;;;;43.05;27.83;;;;;;;;;;5034196;28;20033;-64
2021/09/12 05:05:35;;;;;;;41.78;26.73;;;;;;;;;;5034306;28;20022;-65
2021/09/12 05:08:01;;;;;;;39.63;27.42;;;;;;;;;;5034868;28;20021;-65
2021/09/12 05:10:27;;;;;;;42.58;26.83;;;;;;;;;;5016955;28;20028;-65
2021/09/12 05:12:53;;;;;;;40.17;26.40;;;;;;;;;;5046671;28;20082;-65
2021/09/12 05:15:19;;;;;;;34.65;25.10;;;;;;;;;;5036498;28;20028;-65
2021/09/12 05:17:45;;;;;;;38.47;24.48;;;;;;;;;;5036513;28;20029;-65
2021/09/12 05:20:11;;;;;;;37.72;24.90;;;;;;;;;;5054025;28;20048;-65
2021/09/12 05:22:38;;;;;;;36.15;24.08;;;;;;;;;;5054203;28;20028;-65
2021/09/12 05:25:04;;;;;;;39.58;24.23;;;;;;;;;;5037386;28;20029;-65
2021/09/12 05:27:30;;;;;;;37.30;24.95;;;;;;;;;;5016652;28;20026;-65
2021/09/12 05:29:56;;;;;;;40.60;27.15;;;;;;;;;;5016334;28;20462;-66
2021/09/12 05:32:22;;;;;;;39.40;25.17;;;;;;;;;;5034038;28;20036;-65
2021/09/12 05:34:48;;;;;;;43.08;26.73;;;;;;;;;;5033770;28;20083;-65
2021/09/12 05:37:14;;;;;;;40.53;26.60;;;;;;;;;;5052083;28;20029;-65
2021/09/12 05:39:40;;;;;;;39.28;26.15;;;;;;;;;;5053795;28;20025;-65
2021/09/12 05:42:06;;;;;;;45.10;28.67;;;;;;;;;;5035486;28;20032;-64
2021/09/12 05:44:32;;;;;;;40.47;27.60;;;;;;;;;;5030046;28;20094;-65
2021/09/12 05:46:59;;;;;;;43.83;28.35;;;;;;;;;;5035511;28;20017;-65
2021/09/12 05:49:25;;;;;;;47.05;29.58;;;;;;;;;;5052812;28;20025;-65
2021/09/12 05:51:51;;;;;;;45.75;27.55;;;;;;;;;;5025503;28;20487;-65
2021/09/12 05:54:17;;;;;;;45.35;28.98;;;;;;;;;;5015753;28;20436;-65
2021/09/12 05:56:43;;;;;;;46.40;29.35;;;;;;;;;;5033532;28;20028;-65
2021/09/12 05:59:09;;;;;;;40.65;28.63;;;;;;;;;;5033736;28;20030;-65
2021/09/12 06:01:35;;;;;;;43.58;29.02;;;;;;;;;;5052839;28;20481;-63
2021/09/12 06:04:01;;;;;;;45.05;29.48;;;;;;;;;;5052780;28;20101;-64
2021/09/12 06:06:27;;;;;;;40.70;28.15;;;;;;;;;;5035425;28;20017;-64
2021/09/12 06:08:53;;;;;;;41.30;28.20;;;;;;;;;;5053469;28;20496;-64
2021/09/12 06:11:19;;;;;;;49.92;29.80;;;;;;;;;;5053068;28;20112;-64
2021/09/12 06:13:45;;;;;;;43.75;29.00;;;;;;;;;;5034967;28;20029;-63
2021/09/12 06:16:12;;;;;;;39.53;29.02;;;;;;;;;;5032771;28;20066;-63
2021/09/12 06:18:38;;;;;;;38.30;28.25;;;;;;;;;;5034907;28;20115;-64
2021/09/12 06:21:04;;;;;;;38.20;26.02;;;;;;;;;;5052709;28;20021;-64
2021/09/12 06:23:31;;;;;;;41.70;27.77;;;;;;;;;;5052711;28;20461;-63
2021/09/12 06:25:57;;;;;;;38.58;27.08;;;;;;;;;;5052173;28;20426;-63
2021/09/12 06:28:23;;;;;;;39.25;26.85;;;;;;;;;;5052467;28;20029;-63
2021/09/12 06:30:49;;;;;;;40.95;27.35;;;;;;;;;;5046037;28;20156;-64
2021/09/12 06:33:15;;;;;;;38.45;25.58;;;;;;;;;;5032719;28;20112;-64
2021/09/12 06:35:41;;;;;;;34.38;24.48;;;;;;;;;;5032645;28;20025;-64
2021/09/12 06:38:07;;;;;;;35.28;26.00;;;;;;;;;;5032710;28;20033;-64
2021/09/12 06:40:33;;;;;;;38.28;26.50;;;;;;;;;;5035721;28;20021;-64
2021/09/12 06:43:00;;;;;;;32.70;24.30;;;;;;;;;;5034854;28;20037;-64
2021/09/12 06:45:26;;;;;;;32.50;23.05;;;;;;;;;;5052229;28;20388;-64
2021/09/12 06:47:53;;;;;;;33.67;23.70;;;;;;;;;;5052518;28;20017;-64
2021/09/12 06:50:19;;;;;;;31.17;23.02;;;;;;;;;;5034656;28;20031;-64
2021/09/12 06:52:45;;;;;;;32.95;22.73;;;;;;;;;;5044570;28;20029;-63
2021/09/12 06:55:11;;;;;;;31.08;22.98;;;;;;;;;;5032208;28;20095;-65
2021/09/12 06:57:37;;;;;;;38.03;24.55;;;;;;;;;;5032358;28;20104;-65
2021/09/12 07:00:04;;;;;;;35.72;23.75;;;;;;;;;;5014697;28;20393;-65
2021/09/12 07:02:30;;;;;;;32.35;21.88;;;;;;;;;;5014601;28;20520;-63
2021/09/12 07:04:56;;;;;;;30.48;21.63;;;;;;;;;;5040864;28;20053;-62
2021/09/12 07:07:22;;;;;;;36.05;23.25;;;;;;;;;;5051612;28;20033;-63
2021/09/12 07:09:48;;;;;;;32.00;21.70;;;;;;;;;;5051956;28;20024;-62
2021/09/12 07:12:14;;;;;;;33.00;20.85;;;;;;;;;;5052205;28;20060;-62
2021/09/12 07:14:40;;;;;;;31.98;22.02;;;;;;;;;;5033882;28;20158;-63
2021/09/12 07:17:06;;;;;;;33.17;21.10;;;;;;;;;;5025757;28;20120;-63
2021/09/12 07:19:32;;;;;;;32.92;20.33;;;;;;;;;;5034119;28;20033;-62
2021/09/12 07:21:58;;;;;;;31.95;21.40;;;;;;;;;;5051708;28;20500;-63
2021/09/12 07:24:24;;;;;;;28.95;20.17;;;;;;;;;;5051894;28;20013;-61
2021/09/12 07:26:50;;;;;;;31.92;21.70;;;;;;;;;;5033847;28;20576;-62
2021/09/12 07:29:16;;;;;;;28.45;19.08;;;;;;;;;;5050977;28;20048;-62
2021/09/12 07:31:42;;;;;;;31.67;19.38;;;;;;;;;;5051741;28;20476;-62
2021/09/12 07:34:08;;;;;;;29.02;16.98;;;;;;;;;;5051719;28;20029;-63
2021/09/12 07:36:34;;;;;;;25.55;17.33;;;;;;;;;;5033828;28;20036;-63
2021/09/12 07:39:00;;;;;;;30.30;19.80;;;;;;;;;;5045576;28;20029;-62
2021/09/12 07:41:26;;;;;;;25.75;16.80;;;;;;;;;;5031832;28;20026;-61
2021/09/12 07:43:52;;;;;;;27.55;16.60;;;;;;;;;;5033474;28;20025;-61
2021/09/12 07:46:18;;;;;;;24.95;17.10;;;;;;;;;;5045299;28;20048;-62
2021/09/12 07:48:44;;;;;;;27.42;16.63;;;;;;;;;;5034316;28;20527;-62
2021/09/12 07:51:10;;;;;;;25.80;18.05;;;;;;;;;;5022828;28;20033;-63
2021/09/12 07:53:36;;;;;;;28.35;19.48;;;;;;;;;;5051374;28;20025;-61
2021/09/12 07:56:02;;;;;;;28.50;18.52;;;;;;;;;;5051616;28;20032;-61
2021/09/12 07:58:29;;;;;;;26.80;19.25;;;;;;;;;;4686801;28;9999631;-59
2021/09/12 08:00:55;;;;;;;26.63;18.80;;;;;;;;;;5028316;28;20033;-63
2021/09/12 08:03:21;;;;;;;28.67;19.77;;;;;;;;;;5046081;28;20037;-63
2021/09/12 08:05:47;;;;;;;27.02;19.20;;;;;;;;;;5042056;28;20041;-63
2021/09/12 08:08:13;;;;;;;27.40;18.17;;;;;;;;;;5038620;28;20366;-62
2021/09/12 08:10:39;;;;;;;29.67;18.05;;;;;;;;;;5020821;28;20033;-62
2021/09/12 08:13:05;;;;;;;27.23;19.48;;;;;;;;;;5037142;28;20040;-62
2021/09/12 08:15:31;;;;;;;27.40;18.90;;;;;;;;;;5038154;28;20108;-63
2021/09/12 08:17:57;;;;;;;24.35;18.08;;;;;;;;;;5019832;28;20144;-63
2021/09/12 08:20:23;;;;;;;26.98;17.00;;;;;;;;;;5017800;28;20032;-61
2021/09/12 08:22:49;;;;;;;26.52;16.48;;;;;;;;;;5031136;28;20018;-62
2021/09/12 08:25:15;;;;;;;25.17;15.90;;;;;;;;;;5031340;28;20119;-62
2021/09/12 08:27:41;;;;;;;27.23;16.63;;;;;;;;;;5013940;28;20053;-62
2021/09/12 08:30:08;;;;;;;25.95;16.70;;;;;;;;;;5031499;28;20022;-62
2021/09/12 08:32:34;;;;;;;25.48;16.70;;;;;;;;;;5031924;28;20041;-61
2021/09/12 08:35:00;;;;;;;25.65;15.95;;;;;;;;;;5013276;28;20052;-61
2021/09/12 08:37:26;;;;;;;24.58;15.52;;;;;;;;;;5032367;28;20474;-62
2021/09/12 08:39:53;;;;;;;25.60;16.17;;;;;;;;;;5035866;28;20028;-63
2021/09/12 08:42:19;;;;;;;27.50;17.65;;;;;;;;;;5054866;28;20456;-63
2021/09/12 08:44:45;;;;;;;24.77;15.90;;;;;;;;;;5036408;28;20017;-63
2021/09/12 08:47:11;;;;;;;24.42;16.40;;;;;;;;;;5054661;28;20025;-62
2021/09/12 08:49:38;;;;;;;22.38;15.82;;;;;;;;;;5027066;28;20036;-61
2021/09/12 08:52:04;;;;;;;25.70;16.83;;;;;;;;;;5044157;28;20100;-56
2021/09/12 08:54:30;;;;;;;24.92;15.75;;;;;;;;;;5027009;28;20037;-62
2021/09/12 08:56:56;;;;;;;21.23;15.40;;;;;;;;;;5025252;28;20117;-63
2021/09/12 08:59:29;;;;;;;23.75;15.55;;;;;;;;;;5042306;28;20037;-63
2021/09/12 09:01:59;;;;;;;21.25;14.43;;;;;;;;;;5024559;28;20555;-63
2021/09/12 09:04:28;;;;;;;20.58;13.90;;;;;;;;;;5034418;28;20028;-63
2021/09/12 09:06:58;;;;;;;21.92;14.10;;;;;;;;;;5034659;28;20056;-63
2021/09/12 09:09:37;;;;;;;20.33;13.68;;;;;;;;;;5034665;28;20032;-62
2021/09/12 09:12:03;;;;;;;;;;;;;;;;;;5034974;28;20066;-61
2021/09/12 09:14:30;;;;;;;21.35;13.75;;;;;;;;;;5016151;28;19912;-63
2021/09/12 09:16:57;;;;;;;20.55;13.68;;;;;;;;;;5034205;28;20104;-61
2021/09/12 09:19:23;;;;;;;21.83;13.70;;;;;;;;;;5035105;28;20048;-62
2021/09/12 09:21:49;;;;;;;20.88;12.80;;;;;;;;;;5033900;28;20026;-59
2021/09/12 09:24:16;;;;;;;20.80;12.35;;;;;;;;;;5015503;28;20079;-61
2021/09/12 09:26:49;;;;;;;21.67;14.35;;;;;;;;;;5037922;28;20397;-56
2021/09/12 09:29:22;;;;;;;21.20;14.02;;;;;;;;;;5032438;28;20104;-59
2021/09/12 09:32:00;;;;;;;19.88;13.02;;;;;;;;;;5029269;28;20029;-62
2021/09/12 09:34:26;;;;;;;20.25;14.25;;;;;;;;;;5034384;28;20102;-60
2021/09/12 09:36:52;;;;;;;21.10;13.70;;;;;;;;;;5036652;28;20490;-61
2021/09/12 09:39:34;;;;;;;18.48;14.32;;;;;;;;;;5033434;28;20033;-62
2021/09/12 09:42:00;;;;;;;20.45;13.80;;;;;;;;;;5033427;28;20485;-60
2021/09/12 09:44:26;;;;;;;19.17;13.98;;;;;;;;;;5047631;28;20033;-61
2021/09/12 09:46:53;;;;;;;19.02;14.07;;;;;;;;;;5033328;28;20028;-61
2021/09/12 09:49:22;;;;;;;21.10;14.75;;;;;;;;;;5051395;28;20485;-62
2021/09/12 09:51:50;;;;;;;20.13;14.05;;;;;;;;;;5035341;28;20021;-61
2021/09/12 09:54:17;;;;;;;19.45;13.90;;;;;;;;;;5049392;28;20512;-61
2021/09/12 09:56:47;;;;;;;17.80;13.40;;;;;;;;;;5053380;28;20028;-60
2021/09/12 09:59:14;;;;;;;20.42;14.63;;;;;;;;;;5023528;28;20021;-60
2021/09/12 10:01:41;;;;;;;17.67;13.17;;;;;;;;;;4679935;28;9999920;-61
2021/09/12 10:04:07;;;;;;;19.63;13.50;;;;;;;;;;5041931;28;20284;-60
2021/09/12 10:06:33;;;;;;;22.02;15.13;;;;;;;;;;5033720;28;20036;-62
2021/09/12 10:08:59;;;;;;;19.88;14.20;;;;;;;;;;5029898;28;20021;-61
2021/09/12 10:11:26;;;;;;;19.25;13.93;;;;;;;;;;5030500;28;20543;-62
2021/09/12 10:13:53;;;;;;;18.60;14.00;;;;;;;;;;5029844;28;20091;-62
2021/09/12 10:16:19;;;;;;;19.02;14.05;;;;;;;;;;5034045;28;20033;-62
2021/09/12 10:18:45;;;;;;;19.92;14.50;;;;;;;;;;5047750;28;20021;-62
2021/09/12 10:21:22;;;;;;;19.20;14.07;;;;;;;;;;5025013;28;20040;-62
2021/09/12 10:24:01;;;;;;;20.52;13.85;;;;;;;;;;5043886;28;20075;-62
2021/09/12 10:26:31;;;;;;;18.30;13.90;;;;;;;;;;5034469;28;20164;-62
2021/09/12 10:28:58;;;;;;;23.58;14.00;;;;;;;;;;5031709;28;20140;-63
2021/09/12 10:31:27;;;;;;;20.00;14.70;;;;;;;;;;5011987;28;20049;-61
2021/09/12 10:34:11;;;;;;;20.55;14.48;;;;;;;;;;5022064;28;20032;-63
2021/09/12 10:36:39;;;;;;;19.77;14.13;;;;;;;;;;5029975;28;20116;-63
2021/09/12 10:39:23;;;;;;;20.92;14.98;;;;;;;;;;5027811;28;20578;-63
2021/09/12 10:42:07;;;;;;;18.88;14.43;;;;;;;;;;5029327;28;20044;-62
2021/09/12 10:44:33;;;;;;;18.27;14.30;;;;;;;;;;5043221;28;20088;-62
2021/09/12 10:47:06;;;;;;;18.42;14.70;;;;;;;;;;5049224;28;20501;-62
2021/09/12 10:49:32;;;;;;;19.17;13.95;;;;;;;;;;5042634;28;20547;-62
2021/09/12 10:51:58;;;;;;;19.33;14.82;;;;;;;;;;5029489;28;20037;-63
2021/09/12 10:54:24;;;;;;;27.70;14.70;;;;;;;;;;5027887;28;20437;-62
2021/09/12 10:57:03;;;;;;;18.58;14.63;;;;;;;;;;5029381;28;20061;-62
2021/09/12 10:59:29;;;;;;;19.45;14.70;;;;;;;;;;5028578;28;20033;-63
2021/09/12 11:01:55;;;;;;;19.75;14.35;;;;;;;;;;5031512;28;20036;-64
2021/09/12 11:04:29;;;;;;;20.52;14.05;;;;;;;;;;5047701;28;20025;-63
2021/09/12 11:07:03;;;;;;;19.05;14.68;;;;;;;;;;5030962;28;20078;-63
2021/09/12 11:09:29;;;;;;;19.63;14.70;;;;;;;;;;5032325;28;20026;-63
2021/09/12 11:11:57;;;;;;;18.00;13.90;;;;;;;;;;5029459;28;20048;-63
2021/09/12 11:14:23;;;;;;;17.80;14.50;;;;;;;;;;5028069;28;20033;-63
2021/09/12 11:16:49;;;;;;;20.45;15.00;;;;;;;;;;5034902;28;20116;-63
2021/09/12 11:19:15;;;;;;;26.45;15.60;;;;;;;;;;5048826;28;20373;-60
2021/09/12 11:21:46;;;;;;;25.40;16.33;;;;;;;;;;5048307;28;20029;-60
2021/09/12 11:24:12;;;;;;;19.95;14.55;;;;;;;;;;5048363;28;20053;-60
2021/09/12 11:26:51;;;;;;;22.67;15.52;;;;;;;;;;5046155;28;20083;-61
2021/09/12 11:29:18;;;;;;;20.25;15.50;;;;;;;;;;5048817;28;20020;-60
2021/09/12 11:31:46;;;;;;;20.33;14.75;;;;;;;;;;5028806;28;20033;-60
2021/09/12 11:34:13;;;;;;;24.13;15.95;;;;;;;;;;5045484;28;20029;-60
2021/09/12 11:36:43;;;;;;;19.98;15.57;;;;;;;;;;5048363;28;20029;-58
2021/09/12 11:39:09;;;;;;;18.92;14.95;;;;;;;;;;5033528;28;20037;-60
2021/09/12 11:41:36;;;;;;;19.58;15.80;;;;;;;;;;5030905;28;20025;-60
2021/09/12 11:44:02;;;;;;;20.30;15.90;;;;;;;;;;5039107;28;20017;-59
2021/09/12 11:46:31;;;;;;;21.52;17.42;;;;;;;;;;5048601;28;20021;-61
2021/09/12 11:48:57;;;;;;;22.73;16.55;;;;;;;;;;5049708;28;20404;-60
2021/09/12 11:51:31;;;;;;;20.63;16.80;;;;;;;;;;5049560;28;20021;-59
2021/09/12 11:54:07;;;;;;;21.48;16.85;;;;;;;;;;5050041;28;20083;-58
2021/09/12 11:56:33;;;;;;;21.10;17.02;;;;;;;;;;5050184;28;20029;-61
2021/09/12 11:59:00;;;;;;;20.55;17.85;;;;;;;;;;5051726;28;20057;-59
2021/09/12 12:01:27;;;;;;;18.63;16.60;;;;;;;;;;5044747;23;20050;-63
2021/09/12 12:03:53;;;;;;;21.30;17.00;;;;;;;;;;5030734;28;20100;-63
2021/09/12 12:06:19;;;;;;;19.10;17.00;;;;;;;;;;5030229;28;20095;-62
2021/09/12 12:09:08;;;;;;;19.10;16.95;;;;;;;;;;5030520;28;20025;-64
2021/09/12 12:11:39;;;;;;;20.15;16.95;;;;;;;;;;5030431;28;20401;-63
2021/09/12 12:14:05;;;;;;;19.58;16.27;;;;;;;;;;5033264;28;20034;-63
2021/09/12 12:16:43;;;;;;;19.05;16.13;;;;;;;;;;5034004;28;20159;-61
2021/09/12 12:19:12;;;;;;;19.90;16.48;;;;;;;;;;5034053;28;20462;-62
2021/09/12 12:21:40;;;;;;;19.00;16.77;;;;;;;;;;5034055;28;20551;-63
2021/09/12 12:24:10;;;;;;;23.38;16.20;;;31.80;94.20;;;;;;5033963;28;20032;-61
2021/09/12 12:26:50;;;;;;;21.30;16.50;;;22.80;99.90;;;;;;5033976;28;20026;-61
2021/09/12 12:29:28;;;;;;;21.23;17.10;;;22.70;99.90;;;;;;5034334;28;20021;-60
2021/09/12 12:31:58;;;;;;;19.15;16.50;;;22.60;99.90;;;;;;5034062;28;20112;-61
2021/09/12 12:34:37;;;;;;;19.88;16.98;;;;;;;;;;5033444;28;20025;-59
2021/09/12 12:37:04;;;;;;;19.33;16.65;;;;;;;;;;5034073;28;20053;-62
2021/09/12 12:39:30;;;;;;;19.13;16.63;;;;;;;;;;5033613;28;20469;-62
2021/09/12 12:41:56;;;;;;;20.15;16.35;;;;;;;;;;5033666;28;20052;-62
2021/09/12 12:44:23;;;;;;;18.85;15.85;;;;;;;;;;5034806;28;20064;-62
2021/09/12 12:46:49;;;;;;;18.10;15.18;;;;;;;;;;5034737;28;20025;-62
2021/09/12 12:49:25;;;;;;;20.35;15.73;;;;;;;;;;5033102;28;20060;-60
2021/09/12 12:52:11;;;;;;;19.30;16.13;;;;;;;;;;5034799;28;20029;-61
2021/09/12 12:54:38;;;;;;;22.00;16.02;;;;;;;;;;5034163;28;20029;-62
2021/09/12 12:57:09;;;;;;;19.92;15.80;;;;;;;;;;5033520;28;20033;-62
2021/09/12 12:59:35;;;;;;;19.83;15.65;;;;;;;;;;5033502;28;20428;-62
2021/09/12 13:02:01;;;;;;;19.52;15.98;;;;;;;;;;5034476;28;20030;-62
2021/09/12 13:04:27;;;;;;;17.75;15.40;;;;;;;;;;5032910;28;20056;-63
2021/09/12 13:06:53;;;;;;;21.15;16.67;;;;;;;;;;5033498;28;20045;-61
2021/09/12 13:09:19;;;;;;;19.83;17.35;;;;;;;;;;5033449;28;20458;-62
2021/09/12 13:11:46;;;;;;;19.05;16.33;;;;;;;;;;5034446;28;20116;-63
2021/09/12 13:14:15;;;;;;;20.40;16.27;;;;;;;;;;5032787;28;20497;-63
2021/09/12 13:16:41;;;;;;;18.45;16.48;;;;;;;;;;5034570;28;20037;-65
2021/09/12 13:19:07;;;;;;;19.98;17.02;;;;;;;;;;5034133;28;20022;-64
2021/09/12 13:21:33;;;;;;;20.52;16.45;;;;;;;;;;5032867;28;20107;-63
2021/09/12 13:23:59;;;;;;;18.55;16.65;;;;;;;;;;5032748;28;20439;-64
2021/09/12 13:26:25;;;;;;;18.63;16.27;;;;;;;;;;5033084;28;20025;-64
2021/09/12 13:28:51;;;;;;;18.35;16.45;;;;;;;;;;5034066;28;20021;-64
2021/09/12 13:31:17;;;;;;;21.13;17.48;;;;;;;;;;5032816;28;20033;-63
2021/09/12 13:33:47;;;;;;;18.55;16.55;;;;;;;;;;5034204;28;20442;-64
2021/09/12 13:36:13;;;;;;;18.25;16.30;;;;;;;;;;5034224;28;20163;-63
2021/09/12 13:38:39;;;;;;;18.30;16.33;;;;;;;;;;5033264;28;20112;-63
2021/09/12 13:41:05;;;;;;;19.05;16.08;;;;;;;;;;5032728;28;20120;-63
2021/09/12 13:43:31;;;;;;;20.00;16.10;;;22.80;99.90;;;;;;5033161;28;20021;-62
2021/09/12 13:45:57;;;;;;;20.52;16.67;;;25.30;99.90;;;;;;5032921;28;20168;-65
2021/09/12 13:48:23;;;;;;;18.48;15.77;;;;;;;;;;5032934;28;20053;-64
2021/09/12 13:50:49;;;;;;;20.17;16.17;;;;;;;;;;5034235;28;20131;-64
2021/09/12 13:53:15;;;;;;;19.30;16.38;;;;;;;;;;5032632;28;20025;-63
2021/09/12 13:55:41;;;;;;;17.85;15.93;;;;;;;;;;5033447;28;20492;-64
2021/09/12 13:58:07;;;;;;;18.75;15.82;;;;;;;;;;5033931;28;20029;-65
2021/09/12 14:00:34;;;;;;;18.17;15.85;;;;;;;;;;5032256;28;20033;-63
2021/09/12 14:02:59;;;;;;;18.05;15.68;;;;;;;;;;5033721;28;20056;-64
2021/09/12 14:05:26;;;;;;;19.13;16.38;;;;;;;;;;5033456;28;20057;-64
2021/09/12 14:07:52;;;;;;;18.90;16.15;;;;;;;;;;5032248;28;20025;-64
2021/09/12 14:10:18;;;;;;;17.70;15.80;;;;;;;;;;5033932;28;20028;-64
2021/09/12 14:12:43;;;;;;;18.83;15.95;;;;;;;;;;5034084;28;20500;-63
2021/09/12 14:15:09;;;;;;;17.98;15.50;;;;;;;;;;5033366;28;20021;-64